Time;durP1;ratioP1;P1;durP2;ratioP2;P2;SDS_P1;SDS_P2;PMS_P1;PMS_P2;Temp;Humidity;BMP_temperature;BMP_pressure;BME280_temperature;BME280_humidity;BME280_pressure;Samples;Min_cycle;Max_cycle;Signal;HPM_P1;HPM_P2
2021/08/29 00:01:15;;;;;;;7.10;6.40;;;15.30;99.90;;;;;;5059263;28;20190;-73
2021/08/29 00:03:40;;;;;;;7.63;6.83;;;15.30;99.90;;;;;;5059966;28;20200;-72
2021/08/29 00:06:06;;;;;;;7.87;6.33;;;15.40;99.90;;;;;;5058251;28;20175;-72
2021/08/29 00:08:31;;;;;;;9.00;7.00;;;15.50;99.90;;;;;;5059321;28;20235;-72
2021/08/29 00:10:57;;;;;;;5.97;5.40;;;15.50;99.90;;;;;;5059647;28;20193;-72
2021/08/29 00:13:23;;;;;;;12.48;11.00;;;15.60;99.90;;;;;;5058538;28;20447;-72
2021/08/29 00:15:48;;;;;;;8.90;7.10;;;15.60;99.90;;;;;;5042247;28;20238;-72
2021/08/29 00:18:14;;;;;;;7.03;6.32;;;15.60;99.90;;;;;;5041095;28;20451;-72
2021/08/29 00:20:39;;;;;;;7.10;6.20;;;15.50;99.90;;;;;;5059663;28;20209;-72
2021/08/29 00:23:05;;;;;;;9.03;7.00;;;15.50;99.90;;;;;;5058864;28;20162;-72
2021/08/29 00:25:31;;;;;;;7.70;5.97;;;15.40;99.90;;;;;;5059775;28;20213;-72
2021/08/29 00:27:56;;;;;;;7.30;6.60;;;15.30;99.90;;;;;;5058737;28;20174;-72
2021/08/29 00:30:22;;;;;;;8.67;6.97;;;15.30;99.90;;;;;;5059428;28;20204;-73
2021/08/29 00:32:48;;;;;;;9.03;7.97;;;15.30;99.90;;;;;;5059241;28;20169;-73
2021/08/29 00:35:13;;;;;;;10.57;9.00;;;15.30;99.90;;;;;;5059598;28;20651;-73
2021/08/29 00:37:39;;;;;;;8.37;7.57;;;15.20;99.90;;;;;;5059913;28;20193;-73
2021/08/29 00:40:05;;;;;;;9.23;8.33;;;15.20;99.90;;;;;;5059403;28;20198;-73
2021/08/29 00:42:31;;;;;;;9.10;8.20;;;15.20;99.90;;;;;;5058720;28;20201;-73
2021/08/29 00:44:57;;;;;;;10.50;8.30;;;15.20;99.90;;;;;;5059026;28;20804;-73
2021/08/29 00:47:22;;;;;;;10.50;9.43;;;15.30;99.90;;;;;;5040908;28;20412;-72
2021/08/29 00:49:48;;;;;;;9.47;8.53;;;15.30;99.90;;;;;;5059886;28;20174;-73
2021/08/29 00:52:14;;;;;;;14.20;9.50;;;15.20;99.90;;;;;;5059634;28;20195;-73
2021/08/29 00:54:39;;;;;;;11.63;10.43;;;15.30;99.90;;;;;;5059908;28;20493;-72
2021/08/29 00:57:11;;;;;;;10.50;9.40;;;15.30;99.90;;;;;;5060082;28;20206;-73
2021/08/29 00:59:38;;;;;;;13.32;9.57;;;15.40;99.90;;;;;;5059680;28;20403;-73
2021/08/29 01:02:15;;;;;;;10.87;9.90;;;15.50;99.90;;;;;;5061812;28;20220;-73
2021/08/29 01:05:02;;;;;;;11.80;10.70;;;15.50;99.90;;;;;;5042816;28;20888;-73
2021/08/29 01:07:38;;;;;;;13.60;11.80;;;15.50;99.90;;;;;;5058238;28;20396;-72
2021/08/29 01:10:10;;;;;;;13.93;11.80;;;15.40;99.90;;;;;;5057385;28;20428;-72
2021/08/29 01:12:38;;;;;;;18.30;11.83;;;15.30;99.90;;;;;;5059486;28;20807;-73
2021/08/29 01:15:06;;;;;;;14.90;12.40;;;15.30;99.90;;;;;;5059759;28;20421;-72
2021/08/29 01:17:35;;;;;;;14.97;13.47;;;15.30;99.90;;;;;;5059968;28;20467;-73
2021/08/29 01:20:15;;;;;;;16.43;12.53;;;15.20;99.90;;;;;;5059790;28;20820;-72
2021/08/29 01:22:43;;;;;;;13.97;12.20;;;15.10;99.90;;;;;;5038563;28;20433;-72
2021/08/29 01:25:12;;;;;;;18.43;12.70;;;15.20;99.90;;;;;;5052727;28;20456;-73
2021/08/29 01:27:56;;;;;;;14.10;12.73;;;15.20;99.90;;;;;;5038302;28;20432;-73
2021/08/29 01:30:21;;;;;;;13.73;12.33;;;15.20;99.90;;;;;;5045894;28;20452;-73
2021/08/29 01:32:47;;;;;;;12.77;11.57;;;15.20;99.90;;;;;;5058720;28;20431;-73
2021/08/29 01:35:14;;;;;;;12.67;11.47;;;15.20;99.90;;;;;;5058240;28;20183;-73
2021/08/29 01:37:40;;;;;;;14.98;13.57;;;15.30;99.90;;;;;;5057227;28;20889;-73
2021/08/29 01:40:07;;;;;;;14.83;12.83;;;15.20;99.90;;;;;;5057500;28;20201;-73
2021/08/29 01:42:33;;;;;;;14.00;12.57;;;15.20;99.90;;;;;;5059347;28;20420;-72
2021/08/29 01:44:59;;;;;;;12.37;11.07;;;15.20;99.90;;;;;;5058430;28;20457;-73
2021/08/29 01:47:25;;;;;;;13.23;11.83;;;15.20;99.90;;;;;;5057042;28;20542;-73
2021/08/29 01:49:52;;;;;;;12.70;10.80;;;15.20;99.90;;;;;;5057173;28;20441;-73
2021/08/29 01:52:18;;;;;;;13.43;11.67;;;15.20;99.90;;;;;;5057348;28;20166;-72
2021/08/29 01:54:43;;;;;;;12.13;10.80;;;15.10;99.90;;;;;;5057734;28;20492;-71
2021/08/29 01:57:13;;;;;;;14.80;11.40;;;15.10;99.90;;;;;;5056938;28;20192;-71
2021/08/29 01:59:42;;;;;;;11.37;10.27;;;15.00;99.90;;;;;;5057940;28;20202;-72
2021/08/29 02:02:08;;;;;;;14.43;11.23;;;15.00;99.90;;;;;;5058149;28;20420;-72
2021/08/29 02:04:34;;;;;;;13.83;11.47;;;15.00;99.90;;;;;;5057314;28;20460;-72
2021/08/29 02:07:31;;;;;;;15.33;12.10;;;15.10;99.90;;;;;;5057710;28;20170;-71
2021/08/29 02:10:09;;;;;;;15.37;12.93;;;15.00;99.90;;;;;;5057219;28;20408;-71
2021/08/29 02:12:43;;;;;;;13.23;11.73;;;14.90;99.90;;;;;;5056915;28;20432;-72
2021/08/29 02:15:15;;;;;;;17.90;12.90;;;15.00;99.90;;;;;;5057082;28;20403;-71
2021/08/29 02:17:41;;;;;;;15.30;13.70;;;15.00;99.90;;;;;;5038979;28;20416;-72
2021/08/29 02:20:12;;;;;;;14.83;13.20;;;15.00;99.90;;;;;;5056496;28;20440;-72
2021/08/29 02:22:38;;;;;;;18.07;13.60;;;14.90;99.90;;;;;;5056261;28;20464;-72
2021/08/29 02:25:05;;;;;;;17.50;14.87;;;14.90;99.90;;;;;;5057371;28;20453;-71
2021/08/29 02:27:31;;;;;;;18.00;13.67;;;14.90;99.90;;;;;;5057691;28;20409;-71
2021/08/29 02:29:59;;;;;;;17.00;14.87;;;14.90;99.90;;;;;;5058472;28;20455;-72
2021/08/29 02:32:26;;;;;;;18.70;15.80;;;14.80;99.90;;;;;;5042661;28;20428;-72
2021/08/29 02:34:51;;;;;;;17.60;15.70;;;14.90;99.90;;;;;;5061191;28;20478;-72
2021/08/29 02:37:18;;;;;;;16.60;14.40;;;14.90;99.90;;;;;;5061068;28;20412;-72
2021/08/29 02:39:44;;;;;;;19.20;16.87;;;15.00;99.90;;;;;;5060642;28;20171;-71
2021/08/29 02:42:10;;;;;;;18.90;17.00;;;14.90;99.90;;;;;;5060403;28;20409;-72
2021/08/29 02:44:37;;;;;;;17.67;15.83;;;14.90;99.90;;;;;;5059095;28;20198;-72
2021/08/29 02:47:04;;;;;;;20.50;16.13;;;15.00;99.90;;;;;;5060816;28;20503;-72
2021/08/29 02:49:30;;;;;;;18.63;16.47;;;14.90;99.90;;;;;;5042376;28;20522;-72
2021/08/29 02:51:56;;;;;;;20.70;17.97;;;15.00;99.90;;;;;;5060500;28;20439;-72
2021/08/29 02:54:21;;;;;;;21.40;18.03;;;14.90;99.90;;;;;;5060315;28;20777;-72
2021/08/29 02:56:49;;;;;;;22.03;19.23;;;14.90;99.90;;;;;;5060364;28;20178;-72
2021/08/29 02:59:16;;;;;;;22.13;18.80;;;14.90;99.90;;;;;;5060437;28;20264;-72
2021/08/29 03:01:42;;;;;;;23.93;21.07;;;14.90;99.90;;;;;;5060724;28;20456;-72
2021/08/29 03:04:08;;;;;;;25.13;20.63;;;14.90;99.90;;;;;;5060761;28;20456;-72
2021/08/29 03:06:34;;;;;;;25.17;19.80;;;14.90;99.90;;;;;;5060752;28;20439;-72
2021/08/29 03:09:00;;;;;;;25.17;21.07;;;14.90;99.90;;;;;;5042050;28;20917;-72
2021/08/29 03:11:25;;;;;;;26.30;21.63;;;14.90;99.90;;;;;;5060014;28;20190;-72
2021/08/29 03:13:51;;;;;;;30.63;22.70;;;14.90;99.90;;;;;;5042575;28;20188;-73
2021/08/29 03:16:17;;;;;;;27.27;23.00;;;14.90;99.90;;;;;;5042191;28;20204;-72
2021/08/29 03:18:47;;;;;;;25.30;22.50;;;14.80;99.90;;;;;;5042671;28;20420;-72
2021/08/29 03:21:13;;;;;;;27.37;22.70;;;14.90;99.90;;;;;;5040354;28;20245;-73
2021/08/29 03:23:39;;;;;;;25.73;22.80;;;14.90;99.90;;;;;;5060626;28;20913;-72
2021/08/29 03:26:05;;;;;;;28.90;22.57;;;14.90;99.90;;;;;;5060308;28;20636;-72
2021/08/29 03:28:30;;;;;;;28.13;22.80;;;14.90;99.90;;;;;;5060465;28;20170;-73
2021/08/29 03:30:56;;;;;;;26.40;22.37;;;14.90;99.90;;;;;;5060188;28;20437;-72
2021/08/29 03:33:23;;;;;;;27.60;22.70;;;15.00;99.90;;;;;;5060349;28;20257;-72
2021/08/29 03:35:51;;;;;;;26.00;23.20;;;15.00;99.90;;;;;;5059743;28;20212;-72
2021/08/29 03:38:19;;;;;;;25.63;22.70;;;15.00;99.90;;;;;;5059652;28;20877;-71
2021/08/29 03:40:45;;;;;;;27.27;22.83;;;14.90;99.90;;;;;;5041839;28;20956;-72
2021/08/29 03:43:13;;;;;;;30.00;23.27;;;14.90;99.90;;;;;;5060167;28;20408;-72
2021/08/29 03:45:39;;;;;;;27.80;24.42;;;14.90;99.90;;;;;;5059782;28;20451;-72
2021/08/29 03:48:05;;;;;;;27.83;24.43;;;14.90;99.90;;;;;;5041748;28;20432;-72
2021/08/29 03:50:31;;;;;;;31.40;25.37;;;14.80;99.90;;;;;;5059948;28;20200;-72
2021/08/29 03:52:57;;;;;;;33.27;25.33;;;14.80;99.90;;;;;;5060205;28;20492;-72
2021/08/29 03:55:23;;;;;;;27.97;23.53;;;14.80;99.90;;;;;;5060800;28;20174;-71
2021/08/29 03:57:50;;;;;;;37.83;23.87;;;14.80;99.90;;;;;;5061272;28;20416;-72
2021/08/29 04:00:16;;;;;;;32.00;24.80;;;14.90;99.90;;;;;;5060347;28;20488;-72
2021/08/29 04:02:43;;;;;;;27.83;23.53;;;14.90;99.90;;;;;;5062390;28;20421;-72
2021/08/29 04:05:09;;;;;;;29.70;24.17;;;15.00;99.90;;;;;;5059203;28;20452;-72
2021/08/29 04:07:37;;;;;;;31.30;23.47;;;15.00;99.90;;;;;;5057215;28;20421;-73
2021/08/29 04:10:04;;;;;;;31.70;24.80;;;15.10;99.90;;;;;;5055917;28;20805;-72
2021/08/29 04:12:30;;;;;;;28.20;23.90;;;15.10;99.90;;;;;;5056158;28;20464;-72
2021/08/29 04:14:57;;;;;;;28.43;23.33;;;15.20;99.90;;;;;;5056729;28;20428;-72
2021/08/29 04:17:24;;;;;;;25.10;22.43;;;15.10;99.90;;;;;;5060109;28;20512;-71
2021/08/29 04:19:51;;;;;;;32.63;24.27;;;15.10;99.90;;;;;;5058569;28;20882;-72
2021/08/29 04:22:17;;;;;;;32.87;25.40;;;15.10;99.90;;;;;;5040265;28;20429;-72
2021/08/29 04:24:42;;;;;;;32.67;25.57;;;15.00;99.90;;;;;;5060287;28;20448;-72
2021/08/29 04:27:09;;;;;;;32.00;25.97;;;14.90;99.90;;;;;;5060361;28;20166;-72
2021/08/29 04:29:35;;;;;;;32.47;25.73;;;14.90;99.90;;;;;;5059373;28;20224;-72
2021/08/29 04:32:03;;;;;;;30.67;25.40;;;14.90;99.90;;;;;;5041295;28;20862;-72
2021/08/29 04:34:29;;;;;;;32.00;25.00;;;14.80;99.90;;;;;;5041665;28;20440;-72
2021/08/29 04:36:54;;;;;;;34.60;25.40;;;14.80;99.90;;;;;;5059015;28;20916;-72
2021/08/29 04:39:20;;;;;;;35.87;25.23;;;14.80;99.90;;;;;;5059044;28;20197;-72
2021/08/29 04:41:45;;;;;;;31.93;26.90;;;14.80;99.90;;;;;;5039678;28;20615;-72
2021/08/29 04:44:11;;;;;;;36.93;26.27;;;14.70;99.90;;;;;;5057834;28;20202;-72
2021/08/29 04:46:38;;;;;;;34.00;27.37;;;14.70;99.90;;;;;;5057961;28;20254;-72
2021/08/29 04:49:04;;;;;;;38.20;27.43;;;14.70;99.90;;;;;;5039554;28;20546;-72
2021/08/29 04:51:30;;;;;;;36.30;27.63;;;14.70;99.90;;;;;;5057409;28;20796;-72
2021/08/29 04:53:56;;;;;;;32.67;25.93;;;14.70;99.90;;;;;;5057564;28;20424;-72
2021/08/29 04:56:21;;;;;;;33.80;26.10;;;14.80;99.90;;;;;;5058505;28;20406;-72
2021/08/29 04:58:47;;;;;;;28.73;23.90;;;14.80;99.90;;;;;;5057924;28;20405;-72
2021/08/29 05:01:13;;;;;;;33.70;24.00;;;14.80;99.90;;;;;;5058400;28;20220;-72
2021/08/29 05:03:38;;;;;;;31.33;25.07;;;14.80;99.90;;;;;;5058365;28;20413;-73
2021/08/29 05:06:04;;;;;;;28.10;22.60;;;14.80;99.90;;;;;;5039391;28;20170;-72
2021/08/29 05:08:30;;;;;;;33.43;24.03;;;14.90;99.90;;;;;;5057015;28;20194;-72
2021/08/29 05:10:56;;;;;;;28.30;22.90;;;14.90;99.90;;;;;;5056274;28;20416;-72
2021/08/29 05:13:21;;;;;;;29.37;24.97;;;14.90;99.90;;;;;;5056239;28;20182;-72
2021/08/29 05:15:47;;;;;;;32.20;21.97;;;14.80;99.90;;;;;;5056074;28;20188;-72
2021/08/29 05:18:12;;;;;;;32.07;23.83;;;14.80;99.90;;;;;;5038626;28;20178;-72
2021/08/29 05:20:38;;;;;;;27.73;22.60;;;14.90;99.90;;;;;;5056576;28;20244;-72
2021/08/29 05:23:03;;;;;;;32.30;22.97;;;14.90;99.90;;;;;;5057255;28;20171;-73
2021/08/29 05:25:29;;;;;;;25.57;22.57;;;14.90;99.90;;;;;;5055744;28;20202;-72
2021/08/29 05:27:55;;;;;;;27.87;21.80;;;14.90;99.90;;;;;;5057082;28;20166;-72
2021/08/29 05:30:21;;;;;;;27.30;21.13;;;15.00;99.90;;;;;;5056238;28;20416;-73
2021/08/29 05:32:46;;;;;;;25.97;20.80;;;14.90;99.90;;;;;;5056654;28;20171;-72
2021/08/29 05:35:12;;;;;;;25.33;21.27;;;14.90;99.90;;;;;;5055893;28;20181;-72
2021/08/29 05:37:38;;;;;;;31.80;20.93;;;15.00;99.90;;;;;;5056696;28;20178;-73
2021/08/29 05:40:05;;;;;;;23.50;20.40;;;15.00;99.90;;;;;;5056119;28;20202;-72
2021/08/29 05:42:30;;;;;;;24.80;20.47;;;15.00;99.90;;;;;;5056456;28;20174;-72
2021/08/29 05:44:56;;;;;;;23.80;19.80;;;15.00;99.90;;;;;;5056387;28;20493;-72
2021/08/29 05:47:22;;;;;;;25.27;20.87;;;15.00;99.90;;;;;;5057989;28;20197;-72
2021/08/29 05:49:48;;;;;;;25.80;21.65;;;14.90;99.90;;;;;;5056357;28;20426;-72
2021/08/29 05:52:13;;;;;;;23.57;21.10;;;14.90;99.90;;;;;;5037731;28;20174;-73
2021/08/29 05:54:39;;;;;;;23.63;21.10;;;14.90;99.90;;;;;;5056155;28;20174;-72
2021/08/29 05:57:05;;;;;;;24.77;21.73;;;14.80;99.90;;;;;;5055600;28;20174;-73
2021/08/29 05:59:30;;;;;;;33.10;20.37;;;14.90;99.90;;;;;;5055464;28;20197;-72
2021/08/29 06:01:56;;;;;;;26.00;18.93;;;15.00;99.90;;;;;;5055148;28;20513;-72
2021/08/29 06:04:21;;;;;;;25.83;21.00;;;15.10;99.90;;;;;;5058922;28;20281;-71
2021/08/29 06:06:47;;;;;;;25.70;21.57;;;15.10;99.90;;;;;;5061088;28;20190;-72
2021/08/29 06:09:13;;;;;;;23.93;20.63;;;15.10;99.90;;;;;;5060347;28;20188;-72
2021/08/29 06:11:38;;;;;;;22.53;20.07;;;15.10;99.90;;;;;;5060787;28;20205;-72
2021/08/29 06:14:05;;;;;;;22.00;19.13;;;15.10;99.90;;;;;;5060373;28;20201;-72
2021/08/29 06:16:32;;;;;;;22.47;19.83;;;15.20;99.90;;;;;;5056356;28;20734;-72
2021/08/29 06:18:57;;;;;;;24.67;20.17;;;15.10;99.90;;;;;;5041531;28;20426;-72
2021/08/29 06:21:23;;;;;;;29.20;20.83;;;15.10;99.90;;;;;;5060436;28;20774;-71
2021/08/29 06:23:48;;;;;;;24.80;19.73;;;15.10;99.90;;;;;;5060623;28;20177;-72
2021/08/29 06:26:14;;;;;;;20.90;18.80;;;15.10;99.90;;;;;;5043603;28;20272;-72
2021/08/29 06:28:39;;;;;;;21.80;19.10;;;15.00;99.90;;;;;;5060030;28;20174;-72
2021/08/29 06:31:05;;;;;;;23.80;19.80;;;15.00;99.90;;;;;;5060351;28;20217;-73
2021/08/29 06:33:31;;;;;;;24.53;19.27;;;15.00;99.90;;;;;;5057459;28;20185;-72
2021/08/29 06:35:56;;;;;;;24.27;19.47;;;15.10;99.90;;;;;;5053310;28;20174;-72
2021/08/29 06:38:22;;;;;;;23.30;18.27;;;15.10;99.90;;;;;;5047790;28;20520;-72
2021/08/29 06:40:48;;;;;;;21.37;18.50;;;15.10;99.90;;;;;;5047685;28;20587;-72
2021/08/29 06:43:14;;;;;;;25.63;19.30;;;15.10;99.90;;;;;;5048453;28;20421;-72
2021/08/29 06:45:41;;;;;;;21.23;17.33;;;15.10;99.90;;;;;;5038611;28;20230;-72
2021/08/29 06:48:06;;;;;;;24.03;17.57;;;15.20;99.90;;;;;;5040034;28;20422;-72
2021/08/29 06:50:32;;;;;;;17.20;15.43;;;15.30;99.90;;;;;;5054907;28;20453;-73
2021/08/29 06:52:57;;;;;;;21.33;16.97;;;15.20;99.90;;;;;;5053361;28;20173;-72
2021/08/29 06:55:23;;;;;;;18.20;15.00;;;15.20;99.90;;;;;;5059355;28;20762;-73
2021/08/29 06:57:49;;;;;;;23.20;16.83;;;15.20;99.90;;;;;;5058580;28;20198;-73
2021/08/29 07:00:14;;;;;;;20.33;15.33;;;15.30;99.90;;;;;;5056048;28;20221;-73
2021/08/29 07:02:40;;;;;;;18.27;15.60;;;15.40;99.90;;;;;;5055862;28;20550;-73
2021/08/29 07:05:06;;;;;;;19.87;16.17;;;15.40;99.90;;;;;;5056335;28;20194;-73
2021/08/29 07:07:32;;;;;;;17.37;15.60;;;15.40;99.90;;;;;;5055559;28;20170;-73
2021/08/29 07:09:58;;;;;;;17.10;15.37;;;15.50;99.90;;;;;;5056311;28;20407;-71
2021/08/29 07:12:25;;;;;;;17.50;15.70;;;15.40;99.90;;;;;;5056151;28;20887;-73
2021/08/29 07:14:50;;;;;;;17.90;16.00;;;15.50;99.90;;;;;;5055533;28;20443;-73
2021/08/29 07:17:18;;;;;;;19.60;15.47;;;15.50;99.90;;;;;;5056034;28;20425;-73
2021/08/29 07:19:45;;;;;;;16.20;14.70;;;15.50;99.90;;;;;;5034075;28;20182;-72
2021/08/29 07:22:10;;;;;;;17.90;16.10;;;15.60;99.90;;;;;;5044718;28;20413;-73
2021/08/29 07:24:36;;;;;;;17.63;15.60;;;15.50;99.90;;;;;;5055866;28;20507;-72
2021/08/29 07:27:01;;;;;;;19.20;16.60;;;15.60;99.90;;;;;;5055691;28;20205;-73
2021/08/29 07:29:27;;;;;;;18.00;15.67;;;15.50;99.90;;;;;;5055045;28;20232;-72
2021/08/29 07:31:53;;;;;;;24.13;16.50;;;15.50;99.90;;;;;;5055655;28;20186;-74
2021/08/29 07:34:18;;;;;;;18.77;16.33;;;15.50;99.90;;;;;;5056232;28;20200;-72
2021/08/29 07:36:44;;;;;;;18.47;16.57;;;15.50;99.90;;;;;;5037975;28;20271;-74
2021/08/29 07:39:09;;;;;;;17.20;15.23;;;15.50;99.90;;;;;;5055643;28;20643;-72
2021/08/29 07:41:35;;;;;;;21.13;16.30;;;15.50;99.90;;;;;;5055643;28;20194;-72
2021/08/29 07:44:00;;;;;;;18.20;14.53;;;15.50;99.90;;;;;;5055159;28;20197;-74
2021/08/29 07:46:28;;;;;;;16.40;14.43;;;15.50;99.90;;;;;;5037737;28;20183;-72
2021/08/29 07:48:54;;;;;;;16.70;15.10;;;15.60;99.90;;;;;;5055989;28;20408;-73
2021/08/29 07:51:19;;;;;;;15.63;14.23;;;15.60;99.90;;;;;;5055309;28;20201;-73
2021/08/29 07:53:45;;;;;;;15.47;13.60;;;15.60;99.90;;;;;;5037729;28;20177;-72
2021/08/29 07:56:10;;;;;;;16.87;15.20;;;15.50;99.90;;;;;;5055044;28;20397;-73
2021/08/29 07:58:36;;;;;;;15.53;13.93;;;15.60;99.90;;;;;;5054791;28;20261;-72
2021/08/29 08:01:02;;;;;;;14.83;13.23;;;15.60;99.90;;;;;;5054905;28;20198;-73
2021/08/29 08:03:27;;;;;;;18.30;13.23;;;15.50;99.90;;;;;;5031590;28;20182;-73
2021/08/29 08:05:54;;;;;;;15.23;13.10;;;15.40;99.90;;;;;;5052698;28;20852;-73
2021/08/29 08:08:19;;;;;;;13.27;11.97;;;15.40;99.90;;;;;;5050080;28;20182;-72
2021/08/29 08:10:45;;;;;;;13.77;12.47;;;15.30;99.90;;;;;;5047529;28;20507;-72
2021/08/29 08:13:11;;;;;;;12.90;11.70;;;15.40;99.90;;;;;;5035570;28;20183;-73
2021/08/29 08:15:36;;;;;;;17.00;12.57;;;15.40;99.90;;;;;;5052009;28;20178;-72
2021/08/29 08:18:02;;;;;;;12.50;11.30;;;15.40;99.90;;;;;;5049069;28;20178;-73
2021/08/29 08:20:28;;;;;;;12.10;10.90;;;15.40;99.90;;;;;;5050238;28;20226;-74
2021/08/29 08:22:53;;;;;;;11.97;10.67;;;15.40;99.90;;;;;;5041137;28;20225;-73
2021/08/29 08:25:19;;;;;;;11.60;10.50;;;15.30;99.90;;;;;;5051517;28;20296;-73
2021/08/29 08:27:44;;;;;;;11.90;10.30;;;15.30;99.90;;;;;;5061006;28;20189;-73
2021/08/29 08:30:11;;;;;;;9.33;8.53;;;15.30;99.90;;;;;;5038548;28;20309;-73
2021/08/29 08:32:36;;;;;;;9.40;8.53;;;15.40;99.90;;;;;;5051268;28;20174;-72
2021/08/29 08:35:02;;;;;;;7.43;6.70;;;15.40;99.90;;;;;;5050981;28;20487;-72
2021/08/29 08:37:28;;;;;;;8.40;7.23;;;15.40;99.90;;;;;;5050901;28;20201;-73
2021/08/29 08:39:53;;;;;;;9.70;8.03;;;15.40;99.90;;;;;;5056649;28;20189;-73
2021/08/29 08:42:19;;;;;;;7.30;6.70;;;15.50;99.90;;;;;;5042244;28;20206;-73
2021/08/29 08:44:47;;;;;;;8.30;7.60;;;15.40;99.90;;;;;;5045025;28;20215;-74
2021/08/29 08:47:16;;;;;;;7.03;6.30;;;15.40;99.90;;;;;;5051033;28;20665;-73
2021/08/29 08:49:43;;;;;;;8.10;7.30;;;15.40;99.90;;;;;;5050788;28;20928;-72
2021/08/29 08:52:16;;;;;;;8.17;7.47;;;15.40;99.90;;;;;;5065015;28;21044;-73
2021/08/29 08:54:43;;;;;;;7.97;7.17;;;15.40;99.90;;;;;;5053973;28;20443;-72
2021/08/29 08:57:09;;;;;;;5.77;5.27;;;15.40;99.90;;;;;;5052451;28;20436;-72
2021/08/29 08:59:36;;;;;;;6.10;5.50;;;15.50;99.90;;;;;;5070563;28;20833;-72
2021/08/29 09:02:02;;;;;;;5.20;4.80;;;15.40;99.90;;;;;;5049432;28;20547;-72
2021/08/29 09:04:27;;;;;;;5.90;5.20;;;15.30;99.90;;;;;;5058170;28;20525;-72
2021/08/29 09:06:54;;;;;;;4.73;3.80;;;15.30;99.90;;;;;;5048881;28;20941;-72
2021/08/29 09:09:19;;;;;;;4.03;3.73;;;15.30;99.90;;;;;;5043000;28;20702;-73
2021/08/29 09:11:45;;;;;;;3.83;3.37;;;15.30;99.90;;;;;;5035552;28;20461;-73
2021/08/29 09:14:11;;;;;;;3.23;2.93;;;15.40;99.90;;;;;;5045160;28;20592;-73
2021/08/29 09:16:37;;;;;;;3.17;2.90;;;15.40;99.90;;;;;;5067928;28;20520;-73
2021/08/29 09:19:04;;;;;;;2.70;2.20;;;15.50;99.90;;;;;;5064590;28;20411;-73
2021/08/29 09:21:36;;;;;;;2.70;2.50;;;15.50;99.90;;;;;;5059360;28;20197;-72
2021/08/29 09:24:08;;;;;;;2.30;2.10;;;15.50;99.90;;;;;;5069933;28;20528;-73
2021/08/29 09:26:40;;;;;;;2.40;2.20;;;15.50;99.90;;;;;;5037458;28;20433;-73
2021/08/29 09:29:07;;;;;;;2.37;2.17;;;15.50;99.90;;;;;;5067174;28;20915;-72
2021/08/29 09:31:44;;;;;;;1.93;1.77;;;15.50;99.90;;;;;;5053178;28;20494;-73
2021/08/29 09:34:10;;;;;;;2.23;1.80;;;15.60;99.90;;;;;;5050235;28;20455;-73
2021/08/29 09:36:39;;;;;;;1.87;1.77;;;15.60;99.90;;;;;;5049653;28;20485;-73
2021/08/29 09:39:13;;;;;;;2.20;1.90;;;15.60;99.90;;;;;;5055136;28;20181;-73
2021/08/29 09:41:39;;;;;;;1.90;1.80;;;15.60;99.90;;;;;;5063919;28;20495;-73
2021/08/29 09:44:19;;;;;;;2.27;2.07;;;15.70;99.90;;;;;;5049988;28;20464;-73
2021/08/29 09:46:54;;;;;;;2.60;1.80;;;15.70;99.90;;;;;;5032291;28;20960;-75
2021/08/29 09:49:31;;;;;;;2.23;2.00;;;15.60;99.90;;;;;;5057196;28;20830;-73
2021/08/29 09:51:59;;;;;;;2.10;1.87;;;15.50;99.90;;;;;;5057221;28;20451;-73
2021/08/29 09:54:45;;;;;;;2.93;1.70;;;15.40;99.90;;;;;;5049891;28;20416;-73
2021/08/29 09:57:13;;;;;;;1.83;1.73;;;15.40;99.90;;;;;;5050500;28;20428;-73
2021/08/29 09:59:50;;;;;;;1.73;1.63;;;15.50;99.90;;;;;;5049687;28;20519;-73
2021/08/29 10:02:20;;;;;;;2.23;1.70;;;15.50;99.90;;;;;;5049966;28;20826;-73
2021/08/29 10:04:46;;;;;;;1.40;1.30;;;15.60;99.90;;;;;;5048122;28;20453;-73
2021/08/29 10:07:19;;;;;;;1.60;1.50;;;15.60;99.90;;;;;;5044780;28;20774;-75
2021/08/29 10:09:46;;;;;;;1.50;1.40;;;15.60;99.90;;;;;;5039783;28;20185;-73
2021/08/29 10:12:13;;;;;;;2.00;1.90;;;15.60;99.90;;;;;;5058768;28;20513;-72
2021/08/29 10:14:40;;;;;;;1.87;1.77;;;15.70;99.90;;;;;;5054976;28;20412;-73
2021/08/29 10:17:07;;;;;;;1.80;1.70;;;15.60;99.90;;;;;;5027878;28;20449;-72
2021/08/29 10:19:35;;;;;;;2.43;1.97;;;15.50;99.90;;;;;;5058013;28;20951;-72
2021/08/29 10:22:01;;;;;;;1.80;1.70;;;15.60;99.90;;;;;;5069987;28;20436;-72
2021/08/29 10:24:35;;;;;;;1.20;1.13;;;15.60;99.90;;;;;;5069730;28;20468;-72
2021/08/29 10:27:07;;;;;;;1.53;1.43;;;15.50;99.90;;;;;;5050008;28;20902;-72
2021/08/29 10:29:44;;;;;;;1.70;1.60;;;15.60;99.90;;;;;;5049593;28;20436;-72
2021/08/29 10:32:18;;;;;;;2.30;1.33;;;15.70;99.90;;;;;;5048727;28;20409;-74
2021/08/29 10:34:44;;;;;;;1.40;1.30;;;15.70;99.90;;;;;;5048674;28;20450;-73
2021/08/29 10:37:10;;;;;;;1.40;1.30;;;15.60;99.90;;;;;;5049286;28;20423;-73
2021/08/29 10:39:36;;;;;;;2.10;1.37;;;15.60;99.90;;;;;;5049065;28;20432;-73
2021/08/29 10:42:03;;;;;;;1.93;1.83;;;15.70;99.90;;;;;;5049173;28;20798;-72
2021/08/29 10:44:29;;;;;;;2.37;2.13;;;15.60;99.90;;;;;;5050636;28;20463;-72
2021/08/29 10:46:56;;;;;;;1.70;1.60;;;15.70;99.90;;;;;;5051432;28;20544;-72
2021/08/29 10:49:22;;;;;;;1.90;1.80;;;15.60;99.90;;;;;;5039301;28;20432;-73
2021/08/29 10:51:50;;;;;;;2.37;1.90;;;15.60;99.90;;;;;;5056751;28;20436;-73
2021/08/29 10:54:17;;;;;;;2.10;2.00;;;15.60;99.90;;;;;;5053191;28;20478;-72
2021/08/29 10:56:42;;;;;;;2.27;2.10;;;15.60;99.90;;;;;;5053459;28;20412;-72
2021/08/29 10:59:08;;;;;;;2.53;2.37;;;15.50;99.90;;;;;;5053065;28;20416;-73
2021/08/29 11:01:41;;;;;;;3.27;2.97;;;15.40;99.90;;;;;;5052763;28;20296;-72
2021/08/29 11:04:19;;;;;;;2.87;2.67;;;15.40;99.90;;;;;;5057919;28;20222;-72
2021/08/29 11:06:49;;;;;;;3.20;3.00;;;15.60;99.90;;;;;;5057169;28;20527;-72
2021/08/29 11:11:59;;;;;;;2.63;2.43;;;15.90;99.90;;;;;;5060206;28;20456;-71
2021/08/29 11:14:49;;;;;;;2.13;2.03;;;15.90;99.90;;;;;;5054136;28;21308;-73
2021/08/29 11:17:17;;;;;;;2.50;2.40;;;15.80;99.90;;;;;;5040461;28;20948;-72
2021/08/29 11:19:44;;;;;;;2.85;2.65;;;16.00;99.90;;;;;;5051620;28;20514;-72
2021/08/29 11:22:14;;;;;;;3.03;2.83;;;16.00;99.90;;;;;;5051486;28;20734;-72
2021/08/29 11:24:48;;;;;;;2.90;2.70;;;16.00;99.90;;;;;;5035236;28;20522;-74
2021/08/29 11:27:43;;;;;;;3.13;2.93;;;16.10;99.90;;;;;;5051269;28;20284;-72
2021/08/29 11:30:14;;;;;;;4.23;3.93;;;16.00;99.90;;;;;;5062628;28;20447;-72
2021/08/29 11:32:58;;;;;;;4.07;3.77;;;16.10;99.90;;;;;;5051900;28;20443;-72
2021/08/29 11:35:28;;;;;;;5.97;5.47;;;16.10;99.90;;;;;;5054895;28;20439;-73
2021/08/29 11:38:07;;;;;;;6.40;5.80;;;15.90;99.90;;;;;;5064098;28;20801;-72
2021/08/29 11:40:55;;;;;;;7.23;6.60;;;16.00;99.90;;;;;;5054743;28;21058;-72
2021/08/29 11:43:26;;;;;;;7.50;6.80;;;15.90;99.90;;;;;;5058691;28;20412;-72
2021/08/29 11:46:09;;;;;;;7.73;7.13;;;15.90;99.90;;;;;;5052119;28;20562;-72
2021/08/29 11:48:34;;;;;;;8.30;7.60;;;16.00;99.90;;;;;;5049242;28;20436;-72
2021/08/29 11:51:03;;;;;;;7.67;7.00;;;16.00;99.90;;;;;;5070762;28;20439;-72
2021/08/29 11:53:40;;;;;;;7.93;7.10;;;16.00;99.90;;;;;;5039637;28;20177;-72
2021/08/29 11:56:06;;;;;;;9.10;8.30;;;16.00;99.90;;;;;;5051899;28;20428;-71
2021/08/29 11:58:32;;;;;;;9.10;8.40;;;16.10;99.90;;;;;;5068200;28;20782;-72
2021/08/29 12:01:02;;;;;;;8.27;7.63;;;16.10;99.90;;;;;;5056000;28;20201;-72
2021/08/29 12:03:35;;;;;;;9.23;8.43;;;16.00;99.90;;;;;;5061376;28;20222;-71
2021/08/29 12:06:31;;;;;;;8.80;8.10;;;16.00;99.90;;;;;;5040735;28;20514;-71
2021/08/29 12:09:09;;;;;;;9.13;8.33;;;16.10;99.90;;;;;;5049756;28;20273;-72
2021/08/29 12:11:38;;;;;;;8.90;8.10;;;16.20;99.90;;;;;;5049045;28;20687;-72
2021/08/29 12:14:30;;;;;;;10.93;9.93;;;16.30;99.90;;;;;;5055966;28;20515;-72
2021/08/29 12:16:58;;;;;;;7.43;6.83;;;16.30;99.90;;;;;;5035357;28;20912;-72
2021/08/29 12:19:28;;;;;;;8.50;7.90;;;16.30;99.90;;;;;;5065970;28;20507;-71
2021/08/29 12:21:54;;;;;;;8.77;8.03;;;16.30;99.90;;;;;;5066370;28;20444;-71
2021/08/29 12:24:40;;;;;;;7.27;6.77;;;16.40;99.90;;;;;;5066998;28;20504;-73
2021/08/29 12:27:15;;;;;;;6.93;6.43;;;16.30;99.90;;;;;;5071885;28;20801;-72
2021/08/29 12:29:49;;;;;;;6.70;6.20;;;16.40;99.90;;;;;;5062003;28;20415;-71
2021/08/29 12:32:22;;;;;;;6.83;6.27;;;16.50;99.90;;;;;;5050481;28;20458;-72
2021/08/29 12:34:52;;;;;;;6.10;5.60;;;16.60;99.90;;;;;;5051113;28;20412;-72
2021/08/29 12:37:18;;;;;;;5.53;5.10;;;16.60;99.90;;;;;;5051455;28;20405;-71
2021/08/29 12:40:01;;;;;;;5.40;5.00;;;16.70;99.90;;;;;;5061431;28;20434;-71
2021/08/29 12:42:29;;;;;;;4.17;3.87;;;16.80;99.90;;;;;;5070794;28;20420;-71